Time;durP1;ratioP1;P1;durP2;ratioP2;P2;SDS_P1;SDS_P2;PMS_P1;PMS_P2;Temp;Humidity;BMP_temperature;BMP_pressure;BME280_temperature;BME280_humidity;BME280_pressure;Samples;Min_cycle;Max_cycle;Signal;HPM_P1;HPM_P2
2023/02/01 00:01:08;;;;;;;9.95;5.85;;;5.60;99.90;;;;;;4928417;29;20136;-79
2023/02/01 00:03:34;;;;;;;8.50;5.45;;;5.60;99.90;;;;;;4929742;29;20475;-80
2023/02/01 00:06:02;;;;;;;13.30;6.10;;;5.60;99.90;;;;;;4932405;29;20087;-79
2023/02/01 00:08:29;;;;;;;10.25;6.38;;;5.60;99.90;;;;;;4931649;29;20087;-79
2023/02/01 00:11:05;;;;;;;8.70;5.63;;;5.60;99.90;;;;;;4924789;29;20056;-79
2023/02/01 00:13:34;;;;;;;12.05;6.10;;;5.70;99.90;;;;;;4924670;29;20048;-79
2023/02/01 00:16:16;;;;;;;8.63;5.50;;;5.60;99.90;;;;;;4910207;29;20087;-80
2023/02/01 00:18:44;;;;;;;9.00;5.82;;;5.60;99.90;;;;;;4913683;29;20051;-80
2023/02/01 00:21:12;;;;;;;9.13;5.75;;;5.60;99.90;;;;;;4926879;29;20504;-80
2023/02/01 00:23:39;;;;;;;12.20;5.70;;;5.60;99.90;;;;;;4922010;29;20044;-79
2023/02/01 00:26:10;;;;;;;11.77;5.60;;;5.50;99.90;;;;;;4920542;29;20143;-80
2023/02/01 00:28:37;;;;;;;8.88;4.93;;;5.50;99.90;;;;;;4914070;29;20050;-80
2023/02/01 00:31:04;;;;;;;9.18;5.82;;;5.50;99.90;;;;;;4929914;29;20048;-80
2023/02/01 00:33:32;;;;;;;9.13;5.55;;;5.50;99.90;;;;;;4918653;29;20044;-78
2023/02/01 00:36:00;;;;;;;10.35;5.20;;;5.50;99.90;;;;;;4930031;29;20056;-80
2023/02/01 00:38:28;;;;;;;7.72;5.43;;;5.50;99.90;;;;;;4916188;29;20059;-79
2023/02/01 00:41:01;;;;;;;11.68;6.47;;;5.50;99.90;;;;;;4915732;29;20059;-80
2023/02/01 00:43:28;;;;;;;9.40;5.72;;;5.50;99.90;;;;;;4914555;29;20051;-79
2023/02/01 00:45:55;;;;;;;8.23;5.60;;;5.50;99.90;;;;;;4912447;29;20048;-80
2023/02/01 00:48:21;;;;;;;7.63;5.28;;;5.40;99.90;;;;;;4910010;29;20050;-80
2023/02/01 00:50:48;;;;;;;7.55;5.28;;;5.40;99.90;;;;;;4910119;29;20067;-80
2023/02/01 00:53:15;;;;;;;8.82;5.47;;;5.40;99.90;;;;;;4918978;29;20048;-79
2023/02/01 00:55:45;;;;;;;9.90;6.32;;;5.30;99.90;;;;;;4925565;29;20055;-80
2023/02/01 00:58:12;;;;;;;8.43;5.70;;;5.30;99.90;;;;;;4926041;29;20134;-79
2023/02/01 01:00:39;;;;;;;9.43;5.65;;;5.30;99.90;;;;;;4927106;29;20505;-80
2023/02/01 01:03:18;;;;;;;11.43;6.22;;;5.30;99.90;;;;;;4929354;29;20048;-79
2023/02/01 01:05:46;;;;;;;10.45;6.10;;;5.30;99.90;;;;;;4904540;29;20469;-78
2023/02/01 01:08:14;;;;;;;9.05;5.95;;;5.20;99.90;;;;;;4917087;29;20044;-80
2023/02/01 01:10:41;;;;;;;8.55;5.65;;;5.20;99.90;;;;;;4926645;29;20131;-79
2023/02/01 01:13:08;;;;;;;10.38;5.55;;;5.10;99.90;;;;;;4931240;29;20056;-79
2023/02/01 01:15:36;;;;;;;10.88;6.05;;;5.10;99.90;;;;;;4930855;29;20086;-79
2023/02/01 01:18:03;;;;;;;13.23;5.47;;;5.00;99.90;;;;;;4932669;29;20067;-79
2023/02/01 01:20:30;;;;;;;10.60;6.60;;;5.00;99.90;;;;;;4928586;29;20443;-80
2023/02/01 01:22:57;;;;;;;9.90;5.85;;;4.90;99.90;;;;;;4925596;29;20124;-80
2023/02/01 01:25:24;;;;;;;8.93;5.25;;;4.80;99.90;;;;;;4924914;29;20048;-78
2023/02/01 01:27:50;;;;;;;10.27;6.40;;;4.80;99.90;;;;;;4933347;29;20058;-79
2023/02/01 01:30:17;;;;;;;10.23;6.10;;;4.70;99.90;;;;;;4933491;29;20134;-79
2023/02/01 01:32:44;;;;;;;9.70;6.45;;;4.70;99.90;;;;;;4924466;29;20051;-79
2023/02/01 01:35:11;;;;;;;8.65;6.05;;;4.60;99.90;;;;;;4920073;29;20076;-80
2023/02/01 01:37:38;;;;;;;7.95;5.55;;;4.60;99.90;;;;;;4928951;29;20068;-79
2023/02/01 01:40:06;;;;;;;10.75;6.43;;;4.60;99.90;;;;;;4932620;29;20062;-80
2023/02/01 01:42:38;;;;;;;9.43;5.93;;;4.50;99.90;;;;;;4921327;29;20108;-79
2023/02/01 01:45:19;;;;;;;11.30;6.18;;;4.50;99.90;;;;;;4933192;29;20079;-79
2023/02/01 01:47:50;;;;;;;9.95;5.90;;;4.50;99.90;;;;;;4912470;29;20071;-80
2023/02/01 01:50:20;;;;;;;9.20;5.70;;;4.50;99.90;;;;;;4925421;29;20414;-78
2023/02/01 01:52:50;;;;;;;9.65;6.20;;;4.50;99.90;;;;;;4925284;29;20062;-80
2023/02/01 01:55:20;;;;;;;9.98;5.65;;;4.50;99.90;;;;;;4931371;29;20089;-80
2023/02/01 01:57:52;;;;;;;10.00;5.93;;;4.50;99.90;;;;;;4930395;29;20057;-80
2023/02/01 02:00:20;;;;;;;14.02;6.45;;;4.50;99.90;;;;;;4911544;29;20134;-80
2023/02/01 02:02:52;;;;;;;13.65;6.30;;;4.50;99.90;;;;;;4932360;29;20044;-78
2023/02/01 02:05:20;;;;;;;8.82;6.00;;;4.40;99.90;;;;;;4922216;29;20078;-80
2023/02/01 02:07:49;;;;;;;9.18;6.05;;;4.40;99.90;;;;;;4912427;29;20418;-80
2023/02/01 02:10:16;;;;;;;10.07;6.30;;;4.40;99.90;;;;;;4920866;29;20082;-78
2023/02/01 02:12:46;;;;;;;10.65;6.50;;;4.40;99.90;;;;;;4920632;29;20072;-79
2023/02/01 02:15:15;;;;;;;8.65;6.03;;;4.40;99.90;;;;;;4921139;29;20052;-80
2023/02/01 02:17:58;;;;;;;13.00;6.18;;;4.40;99.90;;;;;;4923871;29;20048;-80
2023/02/01 02:20:25;;;;;;;12.93;5.65;;;4.30;99.90;;;;;;4926814;29;20473;-80
2023/02/01 02:23:06;;;;;;;11.32;6.50;;;4.30;99.90;;;;;;4914488;29;20052;-80
2023/02/01 02:26:10;;;;;;;14.13;6.63;;;4.30;99.90;;;;;;4931227;29;20087;-80
2023/02/01 02:29:02;;;;;;;11.13;5.78;;;4.30;99.90;;;;;;4934455;29;20082;-80
2023/02/01 02:31:58;;;;;;;12.45;5.70;;;4.40;99.90;;;;;;4930282;29;20044;-79
2023/02/01 02:34:32;;;;;;;9.30;5.45;;;4.40;99.90;;;;;;4925371;29;20132;-80
2023/02/01 02:37:14;;;;;;;10.60;5.72;;;4.40;99.90;;;;;;4927827;29;20052;-80
2023/02/01 02:39:49;;;;;;;9.95;5.50;;;4.40;99.90;;;;;;4915144;29;20131;-80
2023/02/01 02:48:18;;;;;;;9.68;5.70;;;4.50;99.90;;;;;;4928136;29;20138;-79
2023/02/01 03:04:56;;;;;;;10.15;6.32;;;4.60;99.90;;;;;;4930089;29;20164;-79
2023/02/01 03:07:54;;;;;;;14.20;6.35;;;4.60;99.90;;;;;;4933591;29;20155;-77
2023/02/01 03:10:23;;;;;;;9.38;5.80;;;4.70;99.90;;;;;;4915412;29;20044;-79
2023/02/01 03:12:56;;;;;;;11.25;6.68;;;4.70;99.90;;;;;;4926779;29;20532;-80
2023/02/01 03:16:08;;;;;;;11.18;5.93;;;4.70;99.90;;;;;;4925673;29;20098;-79
2023/02/01 03:18:41;;;;;;;12.60;6.20;;;4.80;99.90;;;;;;4895918;29;20052;-80
2023/02/01 03:21:15;;;;;;;12.15;6.35;;;4.80;99.90;;;;;;4928983;29;20055;-79
2023/02/01 03:23:44;;;;;;;13.38;5.97;;;4.80;99.90;;;;;;4928989;29;20044;-80
2023/02/01 03:26:15;;;;;;;9.77;5.90;;;4.80;99.90;;;;;;4924617;29;20055;-79
2023/02/01 03:28:51;;;;;;;11.90;5.95;;;4.80;99.90;;;;;;4921283;29;20048;-78
2023/02/01 03:31:18;;;;;;;12.32;6.88;;;4.80;99.90;;;;;;4928440;29;20536;-79
2023/02/01 03:33:46;;;;;;;12.30;6.18;;;4.80;99.90;;;;;;4914030;29;20582;-78
2023/02/01 03:36:26;;;;;;;17.55;6.03;;;4.80;99.90;;;;;;4920248;29;20056;-79
2023/02/01 03:39:04;;;;;;;11.63;6.63;;;4.90;99.90;;;;;;4917079;29;20540;-79
2023/02/01 03:41:51;;;;;;;15.38;6.47;;;4.90;99.90;;;;;;4914718;29;20118;-79
2023/02/01 03:44:30;;;;;;;10.80;6.07;;;4.90;99.90;;;;;;4906703;29;20470;-80
2023/02/01 03:47:09;;;;;;;12.30;6.45;;;4.80;99.90;;;;;;4925713;29;20052;-80
2023/02/01 03:49:50;;;;;;;8.93;6.05;;;4.80;99.90;;;;;;4913684;29;20044;-78
2023/02/01 03:52:23;;;;;;;12.38;6.07;;;4.80;99.90;;;;;;4927055;29;20170;-79
2023/02/01 03:54:52;;;;;;;10.57;5.70;;;4.80;99.90;;;;;;4932266;29;20123;-79
2023/02/01 03:57:25;;;;;;;10.05;6.13;;;4.80;99.90;;;;;;4918654;29;20075;-80
2023/02/01 03:59:51;;;;;;;11.65;6.22;;;4.80;99.90;;;;;;4926792;29;20052;-78
2023/02/01 04:02:18;;;;;;;11.30;6.15;;;4.80;99.90;;;;;;4918405;29;20127;-80
2023/02/01 04:04:45;;;;;;;10.93;5.43;;;4.80;99.90;;;;;;4929718;29;20050;-79
2023/02/01 04:07:12;;;;;;;8.68;5.75;;;4.80;99.90;;;;;;4916202;29;20044;-79
2023/02/01 04:09:38;;;;;;;7.25;5.10;;;4.90;99.90;;;;;;4926066;29;20425;-79
2023/02/01 04:12:05;;;;;;;9.23;5.70;;;4.90;99.90;;;;;;4921682;29;20055;-79
2023/02/01 04:14:32;;;;;;;9.95;5.65;;;4.90;99.90;;;;;;4909079;29;20132;-80
2023/02/01 04:16:58;;;;;;;7.70;5.70;;;4.90;99.90;;;;;;4930839;29;20131;-80
2023/02/01 04:19:25;;;;;;;10.80;6.03;;;4.90;99.90;;;;;;4930232;29;20466;-80
2023/02/01 04:21:52;;;;;;;11.27;5.70;;;4.90;99.90;;;;;;4934033;29;20565;-80
2023/02/01 04:24:18;;;;;;;5.93;4.78;;;4.90;99.90;;;;;;4928009;29;20048;-78
2023/02/01 04:26:45;;;;;;;9.98;5.68;;;4.90;99.90;;;;;;4924213;29;20080;-79
2023/02/01 04:29:12;;;;;;;12.88;5.15;;;4.90;99.90;;;;;;4926537;29;20044;-79
2023/02/01 04:31:39;;;;;;;8.65;5.22;;;4.90;99.90;;;;;;4928027;29;20577;-79
2023/02/01 04:34:05;;;;;;;11.70;5.30;;;4.90;99.90;;;;;;4929517;29;20098;-79
2023/02/01 04:36:32;;;;;;;9.80;5.47;;;4.90;99.90;;;;;;4923700;29;20091;-79
2023/02/01 04:38:59;;;;;;;9.90;5.75;;;4.90;99.90;;;;;;4902468;29;20489;-80
2023/02/01 04:41:26;;;;;;;10.88;5.57;;;4.90;99.90;;;;;;4928987;29;20420;-78
2023/02/01 04:43:52;;;;;;;11.50;5.50;;;4.90;99.90;;;;;;4912530;29;20130;-79
2023/02/01 04:46:19;;;;;;;13.07;5.13;;;4.90;99.90;;;;;;4929539;29;20048;-80
2023/02/01 04:48:46;;;;;;;9.60;4.97;;;4.80;99.90;;;;;;4928896;29;20063;-78
2023/02/01 04:51:13;;;;;;;7.63;5.03;;;4.90;99.90;;;;;;4914798;29;20044;-79
2023/02/01 04:53:39;;;;;;;9.18;4.85;;;4.80;99.90;;;;;;4911744;29;20079;-79
2023/02/01 04:56:07;;;;;;;8.95;5.35;;;4.80;99.90;;;;;;4924315;29;20050;-80
2023/02/01 04:58:33;;;;;;;10.18;5.38;;;4.80;99.90;;;;;;4910692;29;20139;-80
2023/02/01 05:01:04;;;;;;;9.55;4.70;;;4.80;99.90;;;;;;4931045;29;20149;-80
2023/02/01 05:03:32;;;;;;;9.93;4.90;;;4.80;99.90;;;;;;4916649;29;20048;-78
2023/02/01 05:06:00;;;;;;;9.65;5.90;;;4.70;99.90;;;;;;4929329;29;20087;-79
2023/02/01 05:08:28;;;;;;;13.00;6.28;;;4.70;99.90;;;;;;4928013;29;20473;-79
2023/02/01 05:10:55;;;;;;;10.98;4.40;;;4.60;99.90;;;;;;4927647;29;20054;-78
2023/02/01 05:16:07;;;;;;;12.70;6.05;;;4.60;99.90;;;;;;4943168;29;20115;-78
2023/02/01 05:18:33;;;;;;;10.05;5.35;;;4.60;99.90;;;;;;4939817;29;20072;-79
2023/02/01 05:21:01;;;;;;;7.07;4.65;;;4.60;99.90;;;;;;4937272;29;20131;-78
2023/02/01 05:23:28;;;;;;;12.27;5.28;;;4.60;99.90;;;;;;4934944;29;20044;-79
2023/02/01 05:26:01;;;;;;;8.55;5.13;;;4.60;99.90;;;;;;4928123;29;20048;-79
2023/02/01 05:28:28;;;;;;;10.25;4.68;;;4.60;99.90;;;;;;4941165;29;20067;-79
2023/02/01 05:30:55;;;;;;;8.07;4.90;;;4.60;99.90;;;;;;4948218;29;20058;-78
2023/02/01 05:33:22;;;;;;;7.32;4.72;;;4.70;99.90;;;;;;4947735;29;20083;-78
2023/02/01 05:35:50;;;;;;;8.20;4.85;;;4.70;99.90;;;;;;4939625;29;20048;-78
2023/02/01 05:38:17;;;;;;;8.60;4.70;;;4.70;99.90;;;;;;4936023;29;20055;-79
2023/02/01 05:40:49;;;;;;;7.82;4.85;;;4.70;99.90;;;;;;4929686;29;20079;-80
2023/02/01 05:43:16;;;;;;;10.30;4.63;;;4.70;99.90;;;;;;4916248;29;20040;-79
2023/02/01 05:45:42;;;;;;;8.55;4.50;;;4.70;99.90;;;;;;4928249;29;20086;-80
2023/02/01 05:48:09;;;;;;;6.32;4.40;;;4.60;99.90;;;;;;4924801;29;20131;-78
2023/02/01 05:50:36;;;;;;;8.23;5.03;;;4.60;99.90;;;;;;4926515;29;20046;-79
2023/02/01 05:53:02;;;;;;;10.63;5.40;;;4.60;99.90;;;;;;4931269;29;20051;-79
2023/02/01 05:55:29;;;;;;;8.70;4.40;;;4.60;99.90;;;;;;4930831;29;20055;-78
2023/02/01 05:57:56;;;;;;;6.93;4.40;;;4.70;99.90;;;;;;4931698;29;20056;-79
2023/02/01 06:00:23;;;;;;;10.07;4.25;;;4.70;99.90;;;;;;4932280;29;20051;-80
2023/02/01 06:02:50;;;;;;;6.85;4.55;;;4.70;99.90;;;;;;4926986;29;20060;-79
2023/02/01 06:05:17;;;;;;;8.68;4.45;;;4.60;99.90;;;;;;4924801;29;20051;-79
2023/02/01 06:07:44;;;;;;;8.38;5.18;;;4.60;99.90;;;;;;4925799;29;20106;-78
2023/02/01 06:10:11;;;;;;;8.50;4.03;;;4.70;99.90;;;;;;4932220;29;20078;-80
2023/02/01 06:12:37;;;;;;;6.97;4.25;;;4.70;99.90;;;;;;4927484;29;20502;-79
2023/02/01 06:15:05;;;;;;;9.90;5.13;;;4.70;99.90;;;;;;4932188;29;20144;-78
2023/02/01 06:17:32;;;;;;;6.82;3.83;;;4.70;99.90;;;;;;4931294;29;20518;-80
2023/02/01 06:19:58;;;;;;;7.20;4.15;;;4.70;99.90;;;;;;4912902;29;20100;-79
2023/02/01 06:22:25;;;;;;;10.55;4.68;;;4.70;99.90;;;;;;4917458;29;20044;-79
2023/02/01 06:24:52;;;;;;;7.15;4.10;;;4.70;99.90;;;;;;4929208;29;20059;-79
2023/02/01 06:27:18;;;;;;;8.50;4.70;;;4.70;99.90;;;;;;4930180;29;20553;-79
2023/02/01 06:29:45;;;;;;;7.03;4.78;;;4.70;99.90;;;;;;4924406;29;20075;-77
2023/02/01 06:32:12;;;;;;;8.52;4.63;;;4.70;99.90;;;;;;4914450;29;20055;-79
2023/02/01 06:34:39;;;;;;;8.23;3.90;;;4.80;99.90;;;;;;4927708;29;20062;-80
2023/02/01 06:37:06;;;;;;;10.13;4.63;;;4.80;99.90;;;;;;4932592;29;20061;-78
2023/02/01 06:39:32;;;;;;;7.53;4.38;;;4.80;99.90;;;;;;4932394;29;20082;-79
2023/02/01 06:41:59;;;;;;;5.38;3.72;;;4.70;99.90;;;;;;4920157;29;20130;-80
2023/02/01 06:44:26;;;;;;;7.47;3.85;;;4.70;99.90;;;;;;4916510;29;20049;-79
2023/02/01 06:46:53;;;;;;;7.63;3.33;;;4.80;99.90;;;;;;4925727;29;20146;-79
2023/02/01 06:49:20;;;;;;;8.80;3.78;;;4.80;99.90;;;;;;4905936;29;20056;-79
2023/02/01 06:51:47;;;;;;;8.57;4.30;;;4.80;99.90;;;;;;4928352;29;20135;-78
2023/02/01 06:54:14;;;;;;;9.80;3.63;;;4.80;99.90;;;;;;4930624;29;20127;-80
2023/02/01 06:56:40;;;;;;;7.53;3.53;;;4.80;99.90;;;;;;4925091;29;20053;-79
2023/02/01 06:59:07;;;;;;;5.03;2.90;;;4.80;99.90;;;;;;4922861;29;20087;-80
2023/02/01 07:01:34;;;;;;;6.80;3.20;;;4.80;99.90;;;;;;4925990;29;20052;-79
2023/02/01 07:04:01;;;;;;;6.03;3.15;;;4.80;99.90;;;;;;4931030;29;20090;-80
2023/02/01 07:06:27;;;;;;;5.05;3.40;;;4.80;99.90;;;;;;4929544;29;20056;-79
2023/02/01 07:08:55;;;;;;;4.25;2.67;;;4.80;99.90;;;;;;4931181;29;20052;-78
2023/02/01 07:11:22;;;;;;;6.15;3.45;;;4.70;99.90;;;;;;4926322;29;20044;-79
2023/02/01 07:13:50;;;;;;;5.80;3.08;;;4.70;99.90;;;;;;4920324;29;20082;-80
2023/02/01 07:16:19;;;;;;;7.03;3.10;;;4.70;99.90;;;;;;4923640;29;20605;-79
2023/02/01 07:18:46;;;;;;;7.40;3.28;;;4.80;99.90;;;;;;4929229;29;20127;-78
2023/02/01 07:21:13;;;;;;;4.47;3.00;;;4.80;99.90;;;;;;4929985;29;20458;-79
2023/02/01 07:23:40;;;;;;;6.97;4.15;;;4.80;99.90;;;;;;4927317;29;20135;-80
2023/02/01 07:26:07;;;;;;;8.52;3.50;;;4.80;99.90;;;;;;4930688;29;20051;-79
2023/02/01 07:28:35;;;;;;;4.70;3.45;;;4.80;99.90;;;;;;4916804;29;20139;-79
2023/02/01 07:31:11;;;;;;;7.00;3.28;;;4.80;99.90;;;;;;4919055;29;20048;-80
2023/02/01 07:33:37;;;;;;;8.77;3.10;;;4.80;99.90;;;;;;4925505;29;20134;-79
2023/02/01 07:36:06;;;;;;;8.25;3.60;;;4.90;99.90;;;;;;4930436;29;20205;-79
2023/02/01 07:38:33;;;;;;;8.07;3.65;;;4.90;99.90;;;;;;4926651;29;20139;-80
2023/02/01 07:41:02;;;;;;;5.65;3.40;;;4.80;99.90;;;;;;4922163;29;20056;-79
2023/02/01 07:43:29;;;;;;;6.47;3.28;;;4.90;99.90;;;;;;4924912;29;20524;-78
2023/02/01 07:45:56;;;;;;;4.88;3.05;;;4.90;99.90;;;;;;4930376;29;20047;-79
2023/02/01 07:48:25;;;;;;;11.40;3.67;;;4.90;99.90;;;;;;4930486;29;20047;-79
2023/02/01 07:50:58;;;;;;;5.25;3.08;;;4.90;99.90;;;;;;4931645;29;20120;-79
2023/02/01 07:53:25;;;;;;;5.55;3.00;;;4.90;99.90;;;;;;4930645;29;20062;-79
2023/02/01 07:55:52;;;;;;;5.90;2.90;;;5.00;99.90;;;;;;4926218;29;20083;-79
2023/02/01 07:58:18;;;;;;;6.05;2.40;;;5.00;99.90;;;;;;4924571;29;20044;-80
2023/02/01 08:03:30;;;;;;;6.70;2.60;;;5.00;99.90;;;;;;4929615;29;20133;-79
2023/02/01 08:05:57;;;;;;;4.88;2.90;;;5.10;99.90;;;;;;4926842;29;20566;-79
2023/02/01 08:08:24;;;;;;;5.22;3.10;;;5.10;99.90;;;;;;4921867;29;20051;-79
2023/02/01 08:10:51;;;;;;;4.22;2.92;;;5.10;99.90;;;;;;4922269;29;20144;-79
2023/02/01 08:13:17;;;;;;;5.00;2.25;;;5.10;99.90;;;;;;4917428;29;20473;-79
2023/02/01 08:15:44;;;;;;;6.07;2.42;;;5.20;99.90;;;;;;4928980;29;20075;-79
2023/02/01 08:18:11;;;;;;;4.20;2.45;;;5.20;99.90;;;;;;4909138;29;20047;-79
2023/02/01 08:20:41;;;;;;;8.30;3.00;;;5.20;99.90;;;;;;4925988;29;20084;-79
2023/02/01 08:23:08;;;;;;;5.82;2.75;;;5.20;99.90;;;;;;4922339;29;20390;-79
2023/02/01 08:25:36;;;;;;;5.65;2.25;;;5.30;99.90;;;;;;4920283;29;20051;-79
2023/02/01 08:28:03;;;;;;;7.22;2.75;;;5.30;99.90;;;;;;4923293;29;20463;-79
2023/02/01 08:30:30;;;;;;;4.15;2.63;;;5.30;99.90;;;;;;4930587;29;20040;-79
2023/02/01 08:32:57;;;;;;;6.22;2.83;;;5.30;99.90;;;;;;4928133;29;20502;-79
2023/02/01 08:35:24;;;;;;;4.90;2.60;;;5.30;99.90;;;;;;4930639;29;20138;-79
2023/02/01 08:38:08;;;;;;;4.93;2.47;;;5.40;99.90;;;;;;4930688;29;20127;-79
2023/02/01 08:40:34;;;;;;;4.35;2.22;;;5.40;99.90;;;;;;4922869;29;20048;-79
2023/02/01 08:43:01;;;;;;;5.30;2.25;;;5.40;99.90;;;;;;4908987;29;20503;-79
2023/02/01 08:45:29;;;;;;;5.75;2.60;;;5.40;99.90;;;;;;4923360;29;20040;-79
2023/02/01 08:47:57;;;;;;;3.28;2.20;;;5.40;99.90;;;;;;4930245;29;20143;-78
2023/02/01 08:50:24;;;;;;;3.45;2.60;;;5.40;99.90;;;;;;4927481;29;20529;-79
2023/02/01 08:52:53;;;;;;;6.53;3.03;;;5.40;99.90;;;;;;4930830;29;20051;-79
2023/02/01 08:55:20;;;;;;;6.55;3.22;;;5.40;99.90;;;;;;4930194;29;20048;-80
2023/02/01 08:57:47;;;;;;;5.70;2.92;;;5.40;99.90;;;;;;4932869;29;20052;-78
2023/02/01 09:00:16;;;;;;;6.18;2.72;;;5.40;99.90;;;;;;4921829;29;20134;-79
2023/02/01 09:02:44;;;;;;;3.17;2.58;;;5.40;99.90;;;;;;4932860;29;20455;-79
2023/02/01 09:05:11;;;;;;;6.93;2.85;;;5.40;99.90;;;;;;4926953;29;20150;-79
2023/02/01 09:07:38;;;;;;;3.55;2.50;;;5.40;99.90;;;;;;4929001;29;20075;-80
2023/02/01 09:10:05;;;;;;;7.53;2.60;;;5.40;99.90;;;;;;4911689;29;20062;-79
2023/02/01 09:12:33;;;;;;;4.82;2.80;;;5.50;99.90;;;;;;4928864;29;20127;-79
2023/02/01 09:15:00;;;;;;;5.57;2.40;;;5.50;99.90;;;;;;4933895;29;20083;-78
2023/02/01 09:17:29;;;;;;;5.10;3.05;;;5.50;99.90;;;;;;4927940;29;20521;-79
2023/02/01 09:19:56;;;;;;;5.68;2.75;;;5.50;99.90;;;;;;4926544;29;20055;-78
2023/02/01 09:22:22;;;;;;;4.28;2.67;;;5.60;99.90;;;;;;4929827;29;20118;-79
2023/02/01 09:24:49;;;;;;;6.57;3.25;;;5.60;99.90;;;;;;4923006;29;20057;-79
2023/02/01 09:27:16;;;;;;;7.05;3.33;;;5.60;99.90;;;;;;4915609;29;20048;-79
2023/02/01 09:29:43;;;;;;;5.78;3.15;;;5.70;99.90;;;;;;4928085;29;20797;-79
2023/02/01 09:32:10;;;;;;;8.10;3.30;;;5.70;99.90;;;;;;4924964;29;20525;-79
2023/02/01 09:34:36;;;;;;;5.43;2.75;;;5.70;99.90;;;;;;4924727;29;20044;-79
2023/02/01 09:37:03;;;;;;;5.57;2.47;;;5.80;99.90;;;;;;4927417;29;20087;-79
2023/02/01 09:39:30;;;;;;;5.07;3.15;;;5.80;99.90;;;;;;4936315;29;20075;-79
2023/02/01 09:42:07;;;;;;;4.30;2.90;;;5.90;99.90;;;;;;4929243;29;20607;-78
2023/02/01 09:44:49;;;;;;;4.32;2.83;;;6.00;99.90;;;;;;4932840;29;20475;-77
2023/02/01 09:47:19;;;;;;;5.07;3.22;;;6.00;99.90;;;;;;4932241;29;20058;-80
2023/02/01 09:50:01;;;;;;;8.23;2.80;;;6.00;99.90;;;;;;4914707;29;20050;-77
2023/02/01 09:52:38;;;;;;;7.22;2.92;;;6.00;99.90;;;;;;4931909;29;20112;-80
2023/02/01 09:55:24;;;;;;;7.82;3.15;;;6.10;99.90;;;;;;4929268;29;20059;-79
2023/02/01 09:58:03;;;;;;;5.40;2.92;;;6.10;99.90;;;;;;4930792;29;20055;-80
2023/02/01 10:00:35;;;;;;;9.57;3.28;;;6.10;99.90;;;;;;4916277;29;20131;-79
2023/02/01 10:03:02;;;;;;;3.90;2.40;;;6.20;99.90;;;;;;4927876;29;20047;-80
2023/02/01 10:05:54;;;;;;;8.23;3.45;;;6.20;99.90;;;;;;4931723;29;20421;-80
2023/02/01 10:08:39;;;;;;;10.32;3.58;;;6.30;99.90;;;;;;4919566;29;20054;-79
2023/02/01 10:11:30;;;;;;;7.38;3.05;;;6.30;99.90;;;;;;4932269;29;21225;-80
2023/02/01 10:14:15;;;;;;;7.95;3.58;;;6.40;99.90;;;;;;4930655;29;20066;-79
2023/02/01 10:16:54;;;;;;;8.45;3.35;;;6.50;99.90;;;;;;4928938;29;20052;-80
2023/02/01 10:19:43;;;;;;;7.35;2.58;;;6.50;99.90;;;;;;4924018;29;20526;-79
2023/02/01 10:22:15;;;;;;;6.00;2.30;;;6.50;99.90;;;;;;4929250;29;20512;-80
2023/02/01 10:24:45;;;;;;;6.43;2.83;;;6.60;99.90;;;;;;4930541;29;20048;-80
2023/02/01 10:27:19;;;;;;;7.03;3.42;;;6.60;99.90;;;;;;4931282;29;20441;-79
2023/02/01 10:29:54;;;;;;;7.97;3.50;;;6.70;99.90;;;;;;4934792;29;20054;-80
2023/02/01 10:32:27;;;;;;;9.35;3.53;;;6.70;99.90;;;;;;4926620;29;20054;-80
2023/02/01 10:35:08;;;;;;;6.90;3.20;;;6.80;99.90;;;;;;4930099;29;20143;-79
2023/02/01 10:37:35;;;;;;;9.30;3.35;;;6.80;99.90;;;;;;4929376;29;20060;-80
2023/02/01 10:40:24;;;;;;;7.13;3.20;;;6.80;99.90;;;;;;4931717;29;20052;-80
2023/02/01 10:42:57;;;;;;;5.88;2.70;;;6.90;99.90;;;;;;4928873;29;20059;-80
2023/02/01 10:45:27;;;;;;;7.70;3.28;;;6.90;99.90;;;;;;4914433;29;20055;-81
2023/02/01 10:47:55;;;;;;;;;;;7.00;99.90;;;;;;4926804;29;20131;-79
2023/02/01 10:50:54;;;;;;;5.50;2.97;;;6.90;99.90;;;;;;4933065;29;19970;-77
2023/02/01 10:53:29;;;;;;;7.20;2.88;;;6.90;99.90;;;;;;4933358;29;20043;-79
2023/02/01 10:55:56;;;;;;;7.32;3.17;;;7.00;99.90;;;;;;4931760;29;20773;-79
2023/02/01 10:58:31;;;;;;;8.50;3.30;;;7.00;99.90;;;;;;4917373;29;20043;-79
2023/02/01 11:01:05;;;;;;;9.90;4.25;;;7.10;99.90;;;;;;4917441;29;20502;-78
2023/02/01 11:03:33;;;;;;;11.52;3.50;;;7.10;99.90;;;;;;4925332;29;20079;-79
2023/02/01 11:06:02;;;;;;;9.68;2.58;;;7.10;99.90;;;;;;4930587;29;20054;-79
2023/02/01 11:08:29;;;;;;;11.38;3.22;;;7.20;99.90;;;;;;4927197;29;20044;-79
2023/02/01 11:11:05;;;;;;;7.38;3.50;;;7.20;99.90;;;;;;4925343;29;20052;-78
2023/02/01 11:13:37;;;;;;;12.80;3.80;;;7.30;99.90;;;;;;4921097;29;20536;-80
2023/02/01 11:16:05;;;;;;;10.27;3.65;;;7.40;99.90;;;;;;4913557;29;20079;-79
2023/02/01 11:18:36;;;;;;;15.65;3.85;;;7.40;99.90;;;;;;4913709;29;20062;-79
2023/02/01 11:21:05;;;;;;;11.45;3.92;;;7.40;99.90;;;;;;4910881;29;20051;-79
2023/02/01 11:23:33;;;;;;;14.05;3.70;;;7.50;99.90;;;;;;4925684;29;20105;-77
2023/02/01 11:26:09;;;;;;;9.25;3.42;;;7.50;99.90;;;;;;4929367;29;20155;-78
2023/02/01 11:28:40;;;;;;;8.88;3.78;;;7.60;99.90;;;;;;4914379;29;20040;-79
2023/02/01 11:31:12;;;;;;;10.02;3.42;;;7.60;99.90;;;;;;4911459;29;20043;-78
2023/02/01 11:33:48;;;;;;;12.60;3.17;;;7.70;99.90;;;;;;4918545;29;20047;-79
2023/02/01 11:36:31;;;;;;;9.95;3.40;;;7.70;99.90;;;;;;4927730;29;20047;-79
2023/02/01 11:39:12;;;;;;;10.63;3.33;;;7.60;99.90;;;;;;4914325;29;20084;-78
2023/02/01 11:41:58;;;;;;;15.57;4.63;;;7.50;99.90;;;;;;4929243;29;20598;-79
2023/02/01 11:44:30;;;;;;;11.60;3.78;;;7.50;99.90;;;;;;4927791;29;20658;-77
2023/02/01 11:47:37;;;;;;;8.82;3.13;;;7.50;99.90;;;;;;4911595;29;20568;-77
2023/02/01 11:50:14;;;;;;;7.80;2.75;;;7.50;99.90;;;;;;4921032;29;20129;-77
2023/02/01 11:53:08;;;;;;;8.40;2.95;;;7.50;99.90;;;;;;4917609;29;20062;-78
2023/02/01 11:55:46;;;;;;;9.00;3.33;;;7.40;99.90;;;;;;4919937;29;20056;-77
2023/02/01 11:58:56;;;;;;;7.63;3.42;;;7.40;99.90;;;;;;4926899;29;20486;-77
2023/02/01 12:01:22;;;;;;;9.43;3.53;;;7.40;99.90;;;;;;4926823;29;20082;-77
2023/02/01 12:04:08;;;;;;;12.38;4.10;;;7.50;99.90;;;;;;4928515;29;20079;-77
2023/02/01 12:06:51;;;;;;;8.38;3.22;;;7.50;99.90;;;;;;4925961;29;20047;-77
2023/02/01 12:09:30;;;;;;;8.02;2.97;;;7.50;99.90;;;;;;4922771;29;20469;-77
2023/02/01 12:12:25;;;;;;;13.18;4.00;;;7.50;99.90;;;;;;4905677;29;20460;-76
2023/02/01 12:15:12;;;;;;;8.23;3.13;;;7.60;99.90;;;;;;4932137;29;20059;-77
2023/02/01 12:17:41;;;;;;;17.50;4.45;;;7.50;99.90;;;;;;4909406;29;20131;-78
2023/02/01 12:20:27;;;;;;;13.10;4.00;;;7.60;99.90;;;;;;4926666;29;20075;-78
2023/02/01 12:23:10;;;;;;;11.88;4.00;;;7.50;99.90;;;;;;4919467;29;20298;-77
2023/02/01 12:25:52;;;;;;;10.73;3.75;;;7.40;99.90;;;;;;4899366;29;20047;-77
2023/02/01 12:28:46;;;;;;;13.38;3.35;;;7.40;99.90;;;;;;4923630;29;20111;-76
2023/02/01 12:31:45;;;;;;;13.95;4.63;;;7.40;99.90;;;;;;4926611;29;20075;-77
2023/02/01 12:34:29;;;;;;;10.13;3.58;;;7.30;99.90;;;;;;4922750;29;20047;-77
2023/02/01 12:36:58;;;;;;;11.38;3.78;;;7.30;99.90;;;;;;4925852;29;20047;-76
2023/02/01 12:39:38;;;;;;;11.77;4.28;;;7.30;99.90;;;;;;4920464;29;20048;-77
2023/02/01 12:42:15;;;;;;;11.32;3.22;;;7.40;99.90;;;;;;4921059;29;20086;-77
2023/02/01 12:44:56;;;;;;;9.68;3.35;;;7.40;99.90;;;;;;4915325;29;20078;-76
2023/02/01 12:47:36;;;;;;;11.18;2.92;;;7.30;99.90;;;;;;4925903;29;20051;-77
2023/02/01 12:50:18;;;;;;;16.73;3.90;;;7.30;99.90;;;;;;4930427;29;20396;-77
2023/02/01 12:52:50;;;;;;;14.50;3.38;;;7.30;99.90;;;;;;4924288;29;20040;-77
2023/02/01 12:55:48;;;;;;;13.00;3.50;;;7.30;99.90;;;;;;4913313;29;20047;-76
2023/02/01 12:58:30;;;;;;;8.57;2.67;;;7.30;99.90;;;;;;4913087;29;20056;-76
2023/02/01 13:01:08;;;;;;;15.18;3.50;;;7.20;99.90;;;;;;4924238;29;20115;-76
2023/02/01 13:03:53;;;;;;;9.52;3.25;;;7.20;99.90;;;;;;4906204;29;20086;-76
2023/02/01 13:06:27;;;;;;;9.48;3.47;;;7.30;99.90;;;;;;4921994;29;20044;-76
2023/02/01 13:09:15;;;;;;;9.50;3.75;;;7.30;99.90;;;;;;4924569;29;20605;-76
2023/02/01 13:11:46;;;;;;;14.57;3.33;;;7.30;99.90;;;;;;4923159;29;20058;-76
2023/02/01 13:14:27;;;;;;;7.82;2.72;;;7.30;99.90;;;;;;4926450;29;20047;-76
2023/02/01 13:17:05;;;;;;;;;;;7.30;99.90;;;;;;4912661;29;20107;-76
2023/02/01 13:19:43;;;;;;;12.18;3.85;;;7.30;99.90;;;;;;4925266;29;19990;-76
2023/02/01 13:22:15;;;;;;;15.45;3.97;;;7.40;99.90;;;;;;4909437;29;20056;-77
2023/02/01 13:24:46;;;;;;;10.57;2.88;;;7.40;99.90;;;;;;4906784;29;20146;-77
2023/02/01 13:27:15;;;;;;;9.38;2.50;;;7.30;99.90;;;;;;4924731;29;20083;-76
2023/02/01 13:30:02;;;;;;;12.45;3.33;;;7.40;99.90;;;;;;4920626;29;20139;-76
2023/02/01 13:32:42;;;;;;;12.48;4.18;;;7.30;99.90;;;;;;4920075;29;20422;-77
2023/02/01 13:35:38;;;;;;;14.80;3.17;;;7.40;99.90;;;;;;4932649;29;20055;-76
2023/02/01 13:38:43;;;;;;;11.20;3.13;;;7.30;99.90;;;;;;4930957;29;20056;-76
2023/02/01 13:41:31;;;;;;;11.13;2.90;;;7.30;99.90;;;;;;4927122;29;20139;-76
2023/02/01 13:44:05;;;;;;;16.80;3.90;;;7.30;99.90;;;;;;4928005;29;20139;-76